Hauptseite
METAR-TAF:

METAR-TAF

Flughäfen :

Flughafen London Heathrow

London-Heathrow, England

Breite: 51-29N, Länge: 000-27W, Höhe: 24 m

Beobachtung

Neuester Wetterbericht von vor 20 Minuten, um 02:50 UTC
Wind 4 kt aus West
Temperatur 11°C
Luftfeuchtigkeit 87%
Luftdruck 1034 hPa
Sichtweite 10 km oder mehr

METAR: EGLL 250250Z AUTO 27004KT 9999 NCD 11/09 Q1034 NOSIG

Zeit: 04:10 (03:10 UTC)

Prognose

Neuester Wetterbericht von vor 4 Stunden und 14 Minuten, um 22:56 UTC
Gültige Prognose vom 25 um 00 UTC bis 26 um 06 UTC
Wind 4 kt aus unterschiedlichen Richtungen
Sichtweite 10 km oder mehr
keine Wolken unter 1500 m und keine Kumulonimbus oder Gewitterwolken
Wahrscheinlichkeit 30%
vom 25 um 02 UTC bis 25 um 06 UTC
Sichtweite: 8000 m
Wahrscheinlichkeit 30%
vom 26 um 00 UTC bis 26 um 06 UTC
Sichtweite: 8000 m

TAF: EGLL 242256Z 2500/2606 VRB04KT CAVOK PROB30 2502/2506 8000 PROB30 2600/2606 8000

Wetterbeobachtungen und Prognosen von mehr als 4000 Flughäfen (METAR und TAF Bericht).

Die verfügbaren Stationen werden durch gelbe und rote Markierungen auf der Karte dargestellt.

Führen Sie die Maus auf sie, um den Namen der Station zu sehen.

Darauf klicken, um die Beobachtung von Wetterbeobachtungen und Prognosen zu sehen.

Um die Karte zu ändern : klicken Sie auf den grünen Tasten mit einem schwarzen Kreuz Zum Vergrößern, auf den grünen Button mit einem Gedankenstrich zu verkleinern, oder auf die grünen Pfeile für benachbarte Karten.


METAR-TAF: